Latest Coastal Weather Observations for Brisbane Airport

IDQ60701

Issued at 9:55 am EST Friday 22 August 2014 (issued every 10 minutes, with the page automatically refreshed every 10 minutes)

About coastal observations | Map of coastal stations | Coastal observations for QLD | Marine services | Other Formats
Station Details ID: 040842 Name: BRISBANE AERO Lat: -27.39 Lon: 153.13 Height: 4.51 m
Data from the previous 72 hours. | See also: Recent months at Brisbane Airport
Date/Time
EST
Temp

°C
Wind Pressure Rain
since 9am
mm
Weather Cloud Vis
km
Sea
Height
m
Swell
Dir
 
Speed
knots
Gust
knots
hPa Trend Height
m
Period
s
Dir
22/09:30am 15.8 S 8 12 1025.8 - 0.0 Rain Mostly clear 10 - - - -
22/09:00am 15.3 S 6 9 1025.7 R 3.0 Rain Cloudy 15 - - - -
22/08:30am 14.9 S 8 11 1025.7 - 3.0 Rain Mostly clear 10 - - - -
22/08:00am 14.6 S 9 13 1025.4 - 2.8 Rain Mostly clear 10 - - - -
22/07:30am 14.4 S 7 11 1025.2 - 2.6 Rain Mostly clear 10 - - - -
22/07:00am 14.1 S 9 14 1025.0 - 2.0 Rain Mostly clear 10 - - - -
22/06:30am 14.1 S 8 12 1024.8 - 1.0 Rain Mostly clear 10 - - - -
22/06:00am 14.1 S 6 10 1024.4 S 0.8 Rain Mostly cloudy 15 - - - -
22/05:30am 14.3 S 6 9 1024.1 - 0.4 Showers Mostly clear 10 - - - -
22/05:00am 14.8 S 7 12 1023.7 - 0.0 Showers Mostly clear 10 - - - -
22/04:30am 15.0 S 8 13 1023.5 - 0.0 Showers Mostly clear 10 - - - -
22/04:00am 15.3 S 6 9 1023.6 - 0.0 Showers Mostly clear 10 - - - -
22/03:30am 15.0 SSW 6 8 1023.5 - 0.0 - Mostly clear 10 - - - -
22/03:00am 15.0 SSW 5 8 1023.6 R 0.0 Distant precip. Partly cloudy 20 - - - -
22/02:30am 14.6 SSW 7 10 1023.5 - 0.0 - Mostly clear 10 - - - -
22/02:00am 15.0 SSW 9 14 1023.6 - 0.0 - Mostly clear 10 - - - -
22/01:30am 14.9 SSW 9 12 1024.0 - 0.0 - Mostly clear 10 - - - -
22/01:00am 14.1 SSW 8 11 1024.4 - 0.0 - Mostly clear 10 - - - -
22/12:30am 15.4 S 9 13 1023.8 - 0.0 - Mostly clear 10 - - - -
22/12:00am 15.3 S 9 15 1024.0 F 0.0 Fine Mostly cloudy 20 - - - -
 
Date/Time
EST
Temp

°C
Wind Pressure Rain
since 9am
mm
Weather Cloud Vis
km
Sea
Height
m
Swell
Dir
 
Speed
knots
Gust
knots
hPa Trend Height
m
Period
s
Dir
21/11:30pm 15.1 S 9 16 1024.3 - 0.0 - Mostly clear 10 - - - -
21/11:00pm 15.1 S 6 10 1024.6 - 0.0 - Mostly clear 10 - - - -
21/10:30pm 15.1 S 6 11 1024.8 - 0.0 - Mostly clear 10 - - - -
21/10:00pm 15.2 S 9 14 1024.2 - 0.0 - Mostly clear 10 - - - -
21/09:30pm 15.2 S 7 11 1024.6 - 0.0 - Partly cloudy 10 - - - -
21/09:00pm 15.5 S 8 14 1024.4 R 0.0 Showers Mostly cloudy 20 - - - -
21/08:30pm 15.8 S 12 18 1024.1 - 0.0 Showers Partly cloudy 10 - - - -
21/08:00pm 16.1 SSE 9 18 1023.8 - 0.0 Showers Mostly clear 10 - - - -
21/07:30pm 16.7 SSE 9 17 1023.1 - 0.0 - Mostly clear 10 - - - -
21/07:00pm 16.8 SE 7 12 1023.2 - 0.0 Showers Mostly clear 10 - - - -
21/06:30pm 17.0 SSE 10 17 1022.8 - 0.0 - Mostly clear 10 - - - -
21/06:00pm 17.9 SE 10 17 1022.4 R 0.0 Showers Partly cloudy 30 - - - -
21/05:30pm 17.9 SE 11 18 1022.2 - 0.0 - Mostly clear 10 - - - -
21/05:00pm 18.2 SSE 12 19 1022.0 - 0.0 - Mostly clear 10 - - - -
21/04:30pm 19.2 SE 11 18 1021.4 - 0.0 - Mostly clear 10 - - - -
21/04:00pm 19.2 ESE 13 20 1020.8 - 0.0 - Mostly clear 10 - - - -
21/03:30pm 19.8 SE 14 22 1020.7 - 0.0 - Mostly clear 10 - - - -
21/03:00pm 20.5 SE 12 20 1020.9 R 0.0 Fine Partly cloudy 30 - - - -
21/02:30pm 20.4 SE 12 18 1020.8 - 0.0 - Mostly clear 10 - - - -
21/02:00pm 20.5 ESE 11 22 1020.8 - 0.0 - Mostly clear 10 - - - -
21/01:30pm 21.2 SSE 10 16 1020.9 - 0.0 - Mostly clear 10 - - - -
21/01:00pm 21.4 SE 13 20 1021.1 - 0.0 - Mostly clear 10 - - - -
21/12:30pm 20.5 SE 9 15 1021.5 - 0.0 - Mostly clear 10 - - - -
21/12:00pm 21.1 SSE 11 20 1021.9 R 0.0 Fine Partly cloudy 30 - - - -
21/11:30am 20.5 SSE 10 19 1022.4 - 0.0 - Mostly clear 10 - - - -
21/11:00am 20.9 SSE 11 20 1022.7 - 0.0 - Mostly clear 10 - - - -
21/10:30am 19.9 SSE 11 21 1022.9 - 0.0 - Mostly clear 10 - - - -
21/10:00am 20.1 SSE 12 19 1022.9 - 0.0 - Mostly clear 10 - - - -
21/09:30am 18.3 S 8 14 1023.1 - 0.0 - Mostly clear 10 - - - -
21/09:00am 17.4 S 8 12 1023.0 F 0.2 Fine Mostly clear 30 - - - -
21/08:30am 16.4 SSW 11 17 1022.9 - 0.2 - Mostly clear 10 - - - -
21/08:00am 15.4 S 10 15 1022.6 - 0.0 - Mostly clear 10 - - - -
21/07:30am 14.2 SSW 9 13 1022.4 - 0.0 - Mostly clear 10 - - - -
21/07:00am 13.3 SSW 9 13 1022.3 - 0.0 - Mostly clear 10 - - - -
21/06:30am 12.2 SSW 8 10 1022.4 - 0.0 - Mostly clear 10 - - - -
21/06:00am 12.5 SSW 8 11 1022.1 S 0.0 Fine Mostly clear 30 - - - -
21/05:30am 11.7 SSW 9 11 1021.9 - 0.0 - - 10 - - - -
21/05:00am 11.5 SSW 7 9 1021.8 - 0.0 - - 10 - - - -
21/04:30am 12.2 SSW 8 11 1021.4 - 0.0 - - 10 - - - -
21/04:00am 12.8 S 5 6 1021.5 - 0.0 - - 10 - - - -
21/03:30am 12.9 SSW 6 7 1021.3 - 0.0 - - 10 - - - -
21/03:00am 13.1 SSW 7 9 1021.3 S 0.0 Fine Clear 30 - - - -
21/02:30am 12.4 SSW 7 9 1021.6 - 0.0 - - 10 - - - -
21/02:00am 13.1 SSW 7 9 1021.7 - 0.0 - - 10 - - - -
21/01:30am 13.0 SSW 6 8 1021.7 - 0.0 - - 10 - - - -
21/01:00am 13.2 SSW 7 9 1022.0 - 0.0 - - 10 - - - -
21/12:30am 12.9 SSW 7 9 1021.9 - 0.0 - - 10 - - - -
21/12:00am 14.2 S 5 8 1022.0 R 0.0 Fine Clear 30 - - - -
 
Date/Time
EST
Temp

°C
Wind Pressure Rain
since 9am
mm
Weather Cloud Vis
km
Sea
Height
m
Swell
Dir
 
Speed
knots
Gust
knots
hPa Trend Height
m
Period
s
Dir
20/11:30pm 14.2 S 6 7 1022.1 - 0.0 - - 10 - - - -
20/11:00pm 15.1 S 6 8 1022.2 - 0.0 - - 10 - - - -
20/10:30pm 15.7 S 8 13 1022.3 - 0.0 - - 10 - - - -
20/10:00pm 16.0 S 8 14 1022.2 - 0.0 - - 10 - - - -
20/09:30pm 16.6 SSE 8 14 1022.0 - 0.0 - - 10 - - - -
20/09:00pm 17.0 SSE 9 18 1022.0 R 0.0 Fine Clear 30 - - - -
20/08:30pm 16.5 SSE 8 13 1021.9 - 0.0 - - 10 - - - -
20/08:00pm 17.4 SE 7 12 1021.8 - 0.0 - Partly cloudy 10 - - - -
20/07:30pm 17.7 SE 7 11 1021.3 - 0.0 - - 10 - - - -
20/07:00pm 18.0 SE 8 13 1020.9 - 0.0 - - 10 - - - -
20/06:30pm 18.3 SE 8 15 1020.5 - 0.0 - Mostly clear 10 - - - -
20/06:00pm 17.9 SE 9 15 1019.9 R 0.0 Fine Mostly clear 30 - - - -
20/05:30pm 18.1 ESE 10 18 1019.5 - 0.0 - Mostly clear 10 - - - -
20/05:00pm 18.6 ESE 8 17 1019.1 - 0.0 - Mostly clear 10 - - - -
20/04:30pm 19.1 ESE 10 17 1018.6 - 0.0 - Mostly clear 10 - - - -
20/04:00pm 19.5 ESE 11 18 1018.3 - 0.0 - Mostly clear 10 - - - -
20/03:30pm 20.2 ESE 10 18 1018.1 - 0.0 - Mostly clear 10 - - - -
20/03:00pm 20.0 ESE 12 18 1017.9 R 0.0 Fine Mostly clear 30 - - - -
20/02:30pm 21.0 ESE 11 20 1018.0 - 0.0 - Mostly clear 10 - - - -
20/02:00pm 20.7 ESE 9 15 1018.1 - 0.0 - Mostly clear 10 - - - -
20/01:30pm 20.8 ESE 10 16 1018.1 - 0.0 - Partly cloudy 10 - - - -
20/01:00pm 21.3 ESE 10 15 1018.3 - 0.0 - Partly cloudy 10 - - - -
20/12:30pm 20.5 E 9 15 1018.6 - 0.0 - Mostly clear 10 - - - -
20/12:00pm 20.5 E 7 11 1019.0 R 0.0 Fine Mostly clear 30 - - - -
20/11:30am 20.2 ESE 5 10 1019.2 - 0.0 - Mostly clear 10 - - - -
20/11:00am 20.4 SE 8 10 1019.6 - 0.0 - Mostly clear 10 - - - -
20/10:30am 20.2 S 8 14 1019.8 - 0.0 - Mostly clear 10 - - - -
20/10:00am 19.2 SSW 9 13 1020.0 - 0.0 - - 10 - - - -
20/09:30am 18.9 SSW 10 15 1020.1 - 0.0 - - 10 - - - -
20/09:00am 18.0 SSW 11 15 1020.0 R 0.0 Fine Clear 30 - - - -
20/08:30am 17.0 SSW 9 12 1020.0 - 0.0 - - 10 - - - -
20/08:00am 15.4 SSW 8 9 1020.0 - 0.0 - - 10 - - - -
20/07:30am 13.4 SSW 7 9 1019.6 - 0.0 - - 10 - - - -
20/07:00am 12.2 SSW 7 8 1019.5 - 0.0 - - 10 - - - -
20/06:30am 9.7 SSW 7 9 1019.2 - 0.0 - - 10 - - - -
20/06:00am 10.0 SSW 6 8 1018.6 R 0.0 Fine Mostly clear 30 - - - -
20/05:30am 10.4 SSW 6 7 1018.3 - 0.0 - - 10 - - - -
20/05:00am 11.0 SSW 7 8 1017.7 - 0.0 - - 10 - - - -
20/04:30am 11.0 SSW 5 6 1017.5 - 0.0 - - 10 - - - -
20/04:00am 12.1 SSW 5 6 1017.2 - 0.0 - - 10 - - - -
20/03:30am 11.5 SSW 6 8 1016.7 - 0.0 - - 10 - - - -
20/03:00am 12.9 SSW 7 8 1016.7 R 0.0 Fine Clear 30 - - - -
20/02:30am 12.9 SSW 7 9 1016.8 - 0.0 - - 10 - - - -
20/02:00am 12.6 SSW 7 8 1016.8 - 0.0 - - 10 - - - -
20/01:30am 12.0 SW 5 6 1016.7 - 0.0 - - 10 - - - -
20/01:00am 12.4 SSW 5 6 1016.7 - 0.0 - - 10 - - - -
20/12:30am 12.6 WSW 3 5 1016.7 - 0.0 - - 10 - - - -
20/12:00am 13.3 NW 5 6 1016.6 R 0.0 Fine Mostly clear 30 - - - -
 
Date/Time
EST
Temp

°C
Wind Pressure Rain
since 9am
mm
Weather Cloud Vis
km
Sea
Height
m
Swell
Dir
 
Speed
knots
Gust
knots
hPa Trend Height
m
Period
s
Dir
19/11:30pm 14.2 SSW 2 5 1016.6 - 0.0 - - 10 - - - -
19/11:00pm 12.2 SSW 5 7 1016.6 - 0.0 - - 10 - - - -
19/10:30pm 14.4 SSW 9 10 1016.3 - 0.0 - - 10 - - - -
19/10:00pm 15.0 WSW 8 10 1016.1 - 0.0 - - 10 - - - -
19/09:30pm 16.1 WSW 6 8 1016.0 - 0.0 - - 10 - - - -
19/09:00pm 16.1 WSW 9 11 1015.9 R 0.0 Fine Mostly clear 30 - - - -
19/08:30pm 16.6 WSW 9 13 1015.7 - 0.0 - - 10 - - - -
19/08:00pm 16.6 WSW 9 13 1015.5 - 0.0 - - 10 - - - -
19/07:30pm 17.3 WSW 9 14 1015.1 - 0.0 - Partly cloudy 10 - - - -
19/07:00pm 18.2 WSW 11 14 1014.6 - 0.0 - Partly cloudy 10 - - - -
19/06:30pm 18.9 WSW 11 15 1014.2 - 0.0 - Partly cloudy 10 - - - -
19/06:00pm 19.4 WSW 14 18 1013.5 R 0.0 Fine Mostly clear 30 - - - -
19/05:30pm 20.0 WSW 14 18 1012.8 - 0.0 - Partly cloudy 10 - - - -
19/05:00pm 20.8 WSW 18 24 1012.2 - 0.0 - - 10 - - - -
19/04:30pm 21.5 WSW 20 26 1011.7 - 0.0 - - 10 - - - -
19/04:00pm 22.0 WSW 18 22 1011.4 - 0.0 - - 10 - - - -
19/03:30pm 22.9 W 18 22 1011.0 - 0.0 - - 10 - - - -
19/03:00pm 23.0 WSW 17 24 1010.8 R 0.0 Fine Mostly clear 30 - - - -
19/02:30pm 23.1 W 18 26 1011.0 - 0.0 - - 10 - - - -
19/02:00pm 22.6 WSW 15 22 1011.0 - 0.0 - - 10 - - - -
19/01:37pm 22.9 WSW 15 25 1011.1 - 0.0 - - 10 - - - -
19/01:30pm 22.6 WSW 16 23 1011.1 - 0.0 - - 10 - - - -
19/01:00pm 22.8 W 13 19 1011.3 - 0.0 - - 10 - - - -
19/12:30pm 22.3 WSW 15 20 1011.5 - 0.0 - Partly cloudy 10 - - - -
19/12:00pm 21.8 WSW 16 22 1012.0 F 0.0 Fine Mostly clear 30 - - - -
19/11:30am 21.5 WSW 13 20 1012.4 - 0.0 - - 10 - - - -
19/11:00am 21.1 WSW 16 23 1012.8 - 0.0 - - 10 - - - -
19/10:30am 20.1 SW 18 25 1013.3 - 0.0 - - 10 - - - -
19/10:00am 19.7 WSW 18 23 1013.3 - 0.0 - Mostly clear 10 - - - -

Other Formats:

Comma delimited format used in spreadsheet applications
http://www.bom.gov.au/fwo/IDQ60701/IDQ60701.94578.axf

JavaScript Object Notation format (JSON) in row-major order
http://www.bom.gov.au/fwo/IDQ60701/IDQ60701.94578.json